Página principal
METAR-TAF:

METAR-TAF

Aeroportos :

Aeroporto Internacional Princesa Juliana

São Martinho, Antilhas Neerlandesas

latitude: 18-03N, longitude: 063-07W, altura: 4 m

Observação actual do tempo

O boletim foi feito há 1 hora e 1 minutos, às 09:00 UTC
Vento 8 kt de es-nordeste
Temperatura 24°C
Humidade 74%
Pressão 1016 hPa
Visibilidade 10 km ou mais
Nuvens dispersasa uma altura de 1900 ft

METAR: TNCM 190900Z 07008KT 9999 SCT019 24/19 Q1016 RMK A3001

Hora: 06:01 (10:01 UTC)

Previsão

O boletim foi feito há 4 horas e 34 minutos, às 05:27 UTC
Previsão válida de 19 às 06 UTC a 20 às 06 UTC
Vento 10 kt de este
Visibilidade: 10 km
Nuvens dispersasa uma altura de 2000 ft

TAF: TNCM 190527Z 1906/2006 08010KT P6SM SCT020

Observações e previsões do tempo de mais de 4000 aeroportos (mensagens METAR e TAF).

As estações disponíveis são os pontos amarelos e vermelhos sobre o mapa.

Mova o rato sobre o mapa para ver o nome da estação.

Depois clique no ponto para visualizar as observações e previsões meteorológicas.

Para alterar o mapa : clique nos botões verdes com uma cruz preta para aumentar o zoom; no botão verde com uma pitada de zoom; ou nas setas verdes para mapas adjacentes.


METAR-TAF: